site sitenws-alerts: Checking more than four warning/county codes can delay the loading of your pages. You should use a cron job to get the data.

Nearby METAR Weather Reports

 

KETB - West Bend Municipal Airport, West Bend, WI
Updated: 12/06/2019 9:55pm
Clear
Clear
 Wind from calm
Wind: Calm
Temperature: 21°F , -6°C
Dew Point: 21°F , -6°C
Humidity: 100%
Barometer: 30.34 inHg , 1027.4 hPa
Clouds: Clear
Visibility: 10 miles , 16 km
2019/12/07 03:55 KETB 070355Z AUTO 00000KT 10SM CLR M06/M06 A3034 RMK AO2
KOSH - Wittman Regional Airport, Oshkosh, WI
Updated: 12/06/2019 9:53pm
Clear
Clear
 Wind from calm
Wind: Calm
Temperature: 19°F , -7°C
Dew Point: 16°F , -9°C
Humidity: 86%
Barometer: 30.32 inHg , 1026.8 hPa
Clouds: Clear
Visibility: 10 miles , 16 km
2019/12/07 03:53 KOSH 070353Z 00000KT 10SM CLR M07/M09 A3032 RMK AO2 SLP285 T10721089
 
KSBM - Sheboygan County Memorial, Sheboygan, WI
Updated: 12/06/2019 9:53pm
Clear
Clear
 Wind from calm
Wind: Calm
Temperature: 19°F , -7°C
Dew Point: 18°F , -8°C
Humidity: 93%
Barometer: 30.34 inHg , 1027.4 hPa
Clouds: Clear
Visibility: 10 miles , 16 km
2019/12/07 03:53 KSBM 070353Z AUTO 00000KT 10SM CLR M07/M08 A3034 RMK AO2 SLP287 I1000 T10671083
KFLD - FDL County Airport, Fond du Lac, WI
Updated: 12/06/2019 9:53pm
Clear
Clear
 Wind from calm
Wind: Calm
Temperature: 21°F , -6°C
Dew Point: 18°F , -8°C
Humidity: 86%
Barometer: 30.34 inHg , 1027.4 hPa
Clouds: Clear
Visibility: 10 miles , 16 km
2019/12/07 03:53 KFLD 070353Z AUTO 00000KT 10SM CLR M06/M08 A3034 RMK AO2 SLP286 T10561078
 
KMKE - General Mitchell Field, Milwaukee, WI
Updated: 12/06/2019 9:52pm
Partly cloudy
Partly cloudy
 Wind from SW
Wind: SW 3 mph , 6 km/h
Temperature: 27°F , -3°C
Dew Point: 18°F , -8°C
Humidity: 69%
Barometer: 30.36 inHg , 1028.1 hPa
Clouds: Partly cloudy
Visibility: 10 miles , 16 km
Cloud details: Partly cloudy 25000 ft
2019/12/07 03:52 KMKE 070352Z 22003KT 10SM SCT250 M03/M08 A3036 RMK AO2 SLP289 T10281078
KMSN - Truax Field, Madison, WI
Updated: 12/06/2019 9:53pm
Partly cloudy
Partly cloudy
 Wind from calm
Wind: Calm
Temperature: 21°F , -6°C
Dew Point: 18°F , -8°C
Humidity: 86%
Barometer: 30.34 inHg , 1027.4 hPa
Clouds: Partly cloudy
Visibility: 10 miles , 16 km
Cloud details: Partly cloudy 25000 ft
2019/12/07 03:53 KMSN 070353Z 00000KT 10SM SCT250 M06/M08 A3034 RMK AO2 SLP286 T10561078
 
KGRB - Austin Strable Field, Green Bay, WI
Updated: 12/06/2019 9:53pm
Clear
Clear
 Wind from S
Wind: S 3 mph , 6 km/h
Temperature: 21°F , -6°C
Dew Point: 16°F , -9°C
Humidity: 80%
Barometer: 30.34 inHg , 1027.4 hPa
Clouds: Clear
Visibility: 10 miles , 16 km
2019/12/07 03:53 KGRB 070353Z 18003KT 10SM CLR M06/M09 A3034 RMK AO2 SLP285 T10561089
KSUW - Bong Airport, Superior, WI
Updated: 12/06/2019 9:55pm
Overcast
Overcast
 Wind from calm
Wind: Calm
Temperature: 19°F , -7°C
Dew Point: 12°F , -11°C
Humidity: 73%
Barometer: 30.26 inHg , 1024.7 hPa
Clouds: Overcast
Visibility: 10 miles , 16 km
Cloud details: Partly cloudy 4000 ft
Overcast 6500 ft
2019/12/07 03:55 KSUW 070355Z AUTO 00000KT 10SM SCT040 OVC065 M07/M11 A3026 RMK AO2 T10701107
 
KLSE - La Crosse Municipal Airport, La Crosse, WI
Updated: 12/06/2019 9:53pm
Overcast
Overcast
 Wind from S
Wind: S 7 mph , 11 km/h
Temperature: 27°F , -3°C
Wind Chill: 19°F , -7°C
Dew Point: 19°F , -7°C
Humidity: 74%
Barometer: 30.33 inHg , 1027.1 hPa
Clouds: Overcast
Visibility: 10 miles , 16 km
Cloud details: Overcast 10000 ft
2019/12/07 03:53 KLSE 070353Z AUTO 19006KT 10SM OVC100 M03/M07 A3033 RMK AO2 SLP286 T10331072
KIMT - Ford Field, Iron Mountain, MI
Updated: 12/06/2019 9:54pm
Mostly cloudy
Mostly cloudy
 Wind from calm
Wind: Calm
Temperature: 10°F , -12°C
Dew Point: 9°F , -13°C
Humidity: 92%
Barometer: 30.27 inHg , 1025.1 hPa
Clouds: Mostly cloudy
Visibility: 10 miles , 16 km
Cloud details: Mostly cloudy 12000 ft
2019/12/07 03:54 KIMT 070354Z AUTO 00000KT 10SM BKN120 M12/M13 A3027 RMK AO2 SLP274 I1000 T11171133
 
KSAW - K.I. Sawyer Field, Marquette, MI
Updated: 12/06/2019 9:58pm
Partly cloudy
Partly cloudy
 Wind from SSW
Wind: SSW 3 mph , 6 km/h
Temperature: 10°F , -12°C
Dew Point: 9°F , -13°C
Humidity: 92%
Barometer: 30.27 inHg , 1025.1 hPa
Clouds: Partly cloudy
Visibility: 10 miles , 16 km
Cloud details: Partly cloudy 11000 ft
2019/12/07 03:58 KSAW 070358Z AUTO 20003KT 10SM SCT110 M12/M13 A3027 RMK AO2 T11181132
KIWD - Iron County Airport, Ironwood, MI
Updated: 12/06/2019 9:56pm
Overcast
Overcast
 Wind from SW
Wind: SW 5 mph , 7 km/h
Temperature: 18°F , -8°C
Wind Chill: 11°F , -12°C
Dew Point: 12°F , -11°C
Humidity: 79%
Barometer: 30.25 inHg , 1024.4 hPa
Clouds: Overcast
Visibility: 10 miles , 16 km
Cloud details: Overcast 6500 ft
2019/12/07 03:56 KIWD 070356Z AUTO 22004KT 10SM OVC065 M08/M11 A3025 RMK AO2 SLP267 T10831111 FZRANO